Tiempo atmosférico en la estación meteorológica de Alconchel, Badajoz (170 m.)

Fecha
DESCASC
Temp. máxima en grados centígrados (hora)
DESCASC
Temp. mínima en grados centígrados (hora)
DESCASC
Temp. media en grados centígrados
DESCASC
Racha de viento máxima en m/sg (hora)
DESCASC
Velocidad máxima media en intervalos de 10 minutos(hora)
DESCASC
Precipitaciones diarias en mm
DESCASC
Precipitaciones de 00:00 a 06:00 en mm
DESCASC
Precipitaciones de 06:00 a 12:00 en mm
DESCASC
Precipitaciones de 12:00 a 18:00 en mm
DESCASC
Precipitaciones de 18:00 a 24:00 en mm
DESCASC
17-08-2017 38.8 (18:00) 17.7 (08:10) 28.3 11.67 (22:10) 6.39 (22:10) 0 0 0 0 0
16-08-2017 35.9 (17:30) 15.2 (07:40) 25.6 7.5 (15:40) 5.28 (22:40) 0 0 0 0 0
15-08-2017 35.6 (17:10) 15.8 (00:00) 25.7 9.44 (22:40) 5.83 (19:40) 0 0 0 0 0
14-08-2017 36.3 (19:30) 19.7 (07:50) 28 8.33 (21:20) 5.56 (21:40) 0 0 0 0 0
13-08-2017 37.7 (18:10) 19.4 (00:00) 28.6 7.78 (21:10) 4.72 (13:10) 0 0 0 0 0
12-08-2017 37.7 (18:40) 17.4 (00:00) 27.6 6.39 (18:00) 3.89 (00:10) 0 0 0 0 0
11-08-2017 35.1 (18:20) 17.7 (00:00) 26.4 11.39 (16:00) 6.39 (17:00) 0 0 0 0 0
10-08-2017 31.9 (18:10) 17.8 (00:00) 24.8 13.89 (15:40) 7.78 (11:40) 0 0 0 0 0
09-08-2017 30.5 (17:50) 13.1 (00:00) 21.8 10.28 (21:50) 6.39 (21:50) 0 0 0 0 0
08-08-2017 30.8 (17:50) 14 (00:00) 22.4 10.56 (21:00) 6.94 (21:20) 0 0 0 0 0
07-08-2017 34.9 (17:30) 17 (00:00) 26 10 (21:50) 6.94 (22:20) 0 0 0 0 0
06-08-2017 37.4 (19:00) 15.5 (00:00) 26.5 6.67 (17:50) 4.44 (20:00) 0 0 0 0 0
05-08-2017 37.4 (16:10) 19.8 (00:00) 28.6 9.44 (19:30) 6.67 (19:30) 0 0 0 0 0
04-08-2017 40.6 (18:30) 20.3 (00:00) 30.4 10 (20:20) 6.67 (19:50) 0 0 0 0 0
03-08-2017 37.8 (18:10) 16 (00:00) 26.9 10 (23:50) 6.11 (23:59) 0 0 0 0 0
02-08-2017 34.7 (19:30) 14.2 (00:00) 24.5 10.83 (22:40) 7.22 (22:40) 0 0 0 0 0
01-08-2017 31.3 (17:30) 15.6 (00:00) 23.4 11.11 (19:10) 6.67 (20:50) 0 0 0 0 0
31-07-2017 32 (16:50) 14.6 (00:00) 23.3 12.78 (18:40) 8.61 (18:30) 0 0 0 0 0
30-07-2017 36.3 (17:10) 18.1 (00:00) 27.2 9.17 (18:10) 6.39 (20:30) 0 0 0 0 0
29-07-2017 38.4 (18:20) 19.1 (00:00) 28.8 10.83 (21:50) 6.67 (22:40) 0 0 0 0 0
28-07-2017 38.9 (18:50) 16.9 (00:00) 27.9 9.72 (22:30) 6.39 (22:30) 0 0 0 0 0
27-07-2017 37.8 (18:30) 19.4 (00:00) 28.6 8.61 (23:20) 5.83 (21:50) 0 0 0 0 0
26-07-2017 38.3 (19:30) 19.6 (00:00) 28.9 9.17 (22:00) 6.11 (22:00) 0 0 0 0 0
25-07-2017 37.5 (19:10) 17 (00:00) 27.3 10.28 (20:20) 6.94 (20:20) 0 0 0 0 0
24-07-2017 35.2 (19:00) 17.9 (00:00) 26.6 8.89 (16:30) 6.11 (21:20) 0 0 0 0 0
23-07-2017 35.3 (18:10) 14.7 (00:00) 25 10.56 (22:10) 6.39 (21:20) 0 0 0 0 0
22-07-2017 32.9 (19:10) 13.5 (00:00) 23.2 9.72 (21:30) 6.39 (21:10) 0 0 0 0 0
21-07-2017 30.1 (17:20) 13.6 (00:00) 21.9 11.67 (17:40) 5.83 (21:30) 0 0 0 0 0
20-07-2017 30 (18:20) 14.6 (00:00) 22.3 11.39 (21:00) 8.06 (21:10) 0 0 0 0 0
19-07-2017 30.6 (16:50) 18.7 (00:00) 24.7 8.89 (19:30) 5.83 (21:10) 0 0 0 0 0

Gráficas

Temp. máximas Temp. mínimas Temp. medias Precipitaciones Rachas de viento máximas Velocidades máximas media en intervalos de 10 minutos

Datos horarios

Fecha y hora oficial Temperatura (ºC) Velocidad del viento (km/h) Dirección del viento Racha (km/h) Dirección de racha Precipitación (mm) Presión (hPa) Tendencia (hPa) Humedad (%)
2017-08-17 23:00:00 29.7 13 Norte 42 Norte 0 -- -- 39
2017-08-17 22:00:00 32.6 20 Norte 36 Norte 0 -- -- 34
2017-08-17 21:00:00 36.2 12 Norte 24 Noroeste 0 -- -- 23
2017-08-17 20:00:00 38.2 6 Noroeste 15 Sudoeste 0 -- -- 22
2017-08-17 19:00:00 38.1 12 Sudoeste 17 Sudoeste 0 -- -- 21
2017-08-17 18:00:00 38.8 9 Oeste 21 Oeste 0 -- -- 19
2017-08-17 17:00:00 38.3 8 Oeste 19 Oeste 0 -- -- 19
2017-08-17 16:00:00 37.5 11 Oeste 21 Sudoeste 0 -- -- 19
2017-08-17 15:00:00 36.3 10 Noroeste 21 Norte 0 -- -- 22
2017-08-17 14:00:00 34.3 6 Norte 20 Norte 0 -- -- 28
2017-08-17 13:00:00 31.8 10 Norte 19 Sudeste 0 -- -- 36
2017-08-17 12:00:00 27.1 8 Oeste 13 Norte 0 -- -- 49
2017-08-17 11:00:00 24.3 5 Norte 11 Nordeste 0 -- -- 55
2017-08-17 10:00:00 20.8 2 Noroeste 4 Oeste 0 -- -- 63
2017-08-17 09:00:00 18.6 0 Calma 3 Este 0 -- -- 69
2017-08-17 08:00:00 17.9 0 Calma 3 Norte 0 -- -- 73
2017-08-17 07:00:00 18.3 0 Calma 8 Norte 0 -- -- 70
2017-08-17 06:00:00 18.9 6 Norte 13 Norte 0 -- -- 68
2017-08-17 05:00:00 19.6 7 Norte 19 Norte 0 -- -- 64
2017-08-17 04:00:00 20.2 11 Norte 17 Norte 0 -- -- 61
2017-08-17 03:00:00 21.3 8 Norte 10 Norte 0 -- -- 57
2017-08-17 02:00:00 22.4 7 Norte 17 Norte 0 -- -- 54
2017-08-17 01:00:00 24.1 9 Norte 22 Norte 0 -- -- 50
2017-08-17 00:00:00 26.1 3 Norte 13 Norte 0 -- -- 43
2017-08-16 23:00:00 28 12 Norte 27 Norte 0 -- -- 38
2017-08-16 22:00:00 29.7 12 Norte 23 Norte 0 -- -- 30
2017-08-16 21:00:00 32.3 17 Noroeste 26 Noroeste 0 -- -- 24
2017-08-16 20:00:00 35 13 Norte 22 Noroeste 0 -- -- 19
2017-08-16 19:00:00 35.5 11 Noroeste 24 Norte 0 -- -- 18
2017-08-16 18:00:00 35.8 9 Norte 22 Norte 0 -- -- 17
2017-08-16 17:00:00 35.1 13 Norte 27 Noroeste 0 -- -- 17
2017-08-16 16:00:00 34.3 13 Noroeste 27 Norte 0 -- -- 18
2017-08-16 15:00:00 33.1 7 Noroeste 21 Norte 0 -- -- 21
2017-08-16 14:00:00 31.2 7 Noroeste 20 Noroeste 0 -- -- 27
2017-08-16 13:00:00 28.2 5 Oeste 13 Oeste 0 -- -- 33
2017-08-16 12:00:00 25 6 Oeste 12 Oeste 0 -- -- 40
2017-08-16 11:00:00 21.6 6 Oeste 10 Noroeste 0 -- -- 50
2017-08-16 10:00:00 19.3 0 Calma 8 Norte 0 -- -- 56
2017-08-16 09:00:00 17 0 Calma 5 Norte 0 -- -- 67
2017-08-16 08:00:00 15.4 3 Norte 8 Norte 0 -- -- 70
2017-08-16 07:00:00 15.6 7 Norte 10 Norte 0 -- -- 70
2017-08-16 06:00:00 16.2 8 Norte 11 Norte 0 -- -- 69
2017-08-16 05:00:00 17.6 4 Norte 12 Norte 0 -- -- 67
2017-08-16 04:00:00 18.3 7 Norte 13 Noroeste 0 -- -- 64
2017-08-16 03:00:00 20.3 8 Noroeste 10 Noroeste 0 -- -- 59
2017-08-16 02:00:00 21.8 6 Noroeste 15 Norte 0 -- -- 54
2017-08-16 01:00:00 23.3 0 Calma 9 Norte 0 -- -- 48
2017-08-16 00:00:00 24.8 7 Norte 27 Norte 0 -- -- 45
2017-08-15 23:00:00 26.8 18 Norte 34 Norte 0 -- -- 39
2017-08-15 22:00:00 28.9 12 Norte 23 Noroeste 0 -- -- 30
2017-08-15 21:00:00 31.4 19 Noroeste 28 Noroeste 0 -- -- 23
2017-08-15 20:00:00 33.6 20 Noroeste 32 Noroeste 0 -- -- 23
2017-08-15 19:00:00 34.7 19 Noroeste 29 Noroeste 0 -- -- 21
2017-08-15 18:00:00 35.3 19 Noroeste 31 Noroeste 0 -- -- 20
2017-08-15 17:00:00 35.4 15 Noroeste 29 Noroeste 0 -- -- 20
2017-08-15 16:00:00 34.7 14 Noroeste 26 Oeste 0 -- -- 21
2017-08-15 15:00:00 32.9 12 Oeste 20 Oeste 0 -- -- 24
2017-08-15 14:00:00 30.2 5 Noroeste 10 Noroeste 0 -- -- 33
2017-08-15 13:00:00 27 5 Noroeste 11 Sudoeste 0 -- -- 44
2017-08-15 12:00:00 24 5 Oeste 10 Oeste 0 -- -- 55
2017-08-15 11:00:00 21.2 7 Oeste 10 Oeste 0 -- -- 65
2017-08-15 10:00:00 19.7 0 Calma 6 Norte 0 -- -- 71
2017-08-15 09:00:00 17.5 0 Calma 8 Noroeste 0 -- -- 79
2017-08-15 08:00:00 15.9 6 Noroeste 9 Noroeste 0 -- -- 85
2017-08-15 07:00:00 16.5 5 Norte 9 Norte 0 -- -- 82
2017-08-15 06:00:00 17.4 7 Norte 9 Norte 0 -- -- 78
2017-08-15 05:00:00 18.5 4 Norte 11 Noroeste 0 -- -- 71
2017-08-15 04:00:00 19.9 7 Noroeste 10 Noroeste 0 -- -- 65
2017-08-15 03:00:00 21.9 4 Oeste 9 Noroeste 0 -- -- 58
2017-08-15 02:00:00 23.2 6 Noroeste 9 Noroeste 0 -- -- 53
2017-08-15 01:00:00 25 6 Noroeste 10 Noroeste 0 -- -- 48
2017-08-15 00:00:00 26.6 6 Noroeste 17 Noroeste 0 -- -- 46
2017-08-14 23:00:00 28.2 14 Noroeste 23 Noroeste 0 -- -- 42
2017-08-14 22:00:00 30.4 15 Noroeste 30 Noroeste 0 -- -- 30
2017-08-14 21:00:00 33.9 15 Noroeste 24 Noroeste 0 -- -- 24
2017-08-14 20:00:00 36.1 12 Noroeste 25 Noroeste 0 -- -- 21
2017-08-14 19:00:00 36.2 10 Oeste 21 Sudoeste 0 -- -- 21
2017-08-14 18:00:00 35.6 14 Sudoeste 22 Sudoeste 0 -- -- 23
2017-08-14 17:00:00 34.7 16 Sudoeste 22 Sudoeste 0 -- -- 25
2017-08-14 16:00:00 33.2 13 Sudoeste 18 Sudoeste 0 -- -- 27
2017-08-14 15:00:00 31.5 11 Sudoeste 17 Sudoeste 0 -- -- 31
2017-08-14 14:00:00 28.9 12 Sudoeste 16 Oeste 0 -- -- 36
2017-08-14 13:00:00 27.4 13 Oeste 18 Oeste 0 -- -- 37
2017-08-14 12:00:00 25.5 8 Sudoeste 14 Sudoeste 0 -- -- 46
2017-08-14 11:00:00 23.7 5 Sur 11 Sur 0 -- -- 52
2017-08-14 10:00:00 21.9 5 Sur 10 Sur 0 -- -- 57
2017-08-14 09:00:00 20.4 6 Sur 10 Sur 0 -- -- 61
2017-08-14 08:00:00 19.7 6 Sur 12 Sur 0 -- -- 61
2017-08-14 07:00:00 20.3 10 Sur 13 Sur 0 -- -- 59
2017-08-14 06:00:00 20.8 9 Sur 13 Sur 0 -- -- 57
2017-08-14 05:00:00 21.4 6 Sur 13 Sur 0 -- -- 54
2017-08-14 04:00:00 22.1 9 Sur 15 Sudeste 0 -- -- 50
2017-08-14 03:00:00 22.8 9 Sur 13 Sudeste 0 -- -- 54
2017-08-14 02:00:00 24.6 6 Oeste 12 Oeste 0 -- -- 44
2017-08-14 01:00:00 25.2 7 Sudoeste 17 Sudoeste 0 -- -- 44
2017-08-14 00:00:00 26.3 9 Sudoeste 15 Sudoeste 0 -- -- 42
2017-08-13 23:00:00 28.6 10 Oeste 27 Noroeste 0 -- -- 34
2017-08-13 22:00:00 30.9 16 Noroeste 28 Noroeste 0 -- -- 28
2017-08-13 21:00:00 34.2 15 Noroeste 20 Oeste 0 -- -- 23
2017-08-13 20:00:00 36.5 7 Oeste 12 Oeste 0 -- -- 21
2017-08-13 19:00:00 37.5 6 Oeste 13 Oeste 0 -- -- 19
2017-08-13 18:00:00 37.3 9 Oeste 15 Oeste 0 -- -- 19
2017-08-13 17:00:00 36.6 11 Oeste 17 Oeste 0 -- -- 19
2017-08-13 16:00:00 34.9 14 Sudoeste 20 Sudoeste 0 -- -- 21
2017-08-13 15:00:00 33.5 15 Sudoeste 22 Oeste 0 -- -- 24
2017-08-13 14:00:00 32.3 17 Oeste 22 Oeste 0 -- -- 24
2017-08-13 13:00:00 30.3 16 Oeste 23 Oeste 0 -- -- 30
2017-08-13 12:00:00 28.8 14 Oeste 21 Oeste 0 -- -- 35
2017-08-13 11:00:00 27.5 13 Sur 19 Sudoeste 0 -- -- 35
2017-08-13 10:00:00 24.2 6 Sudoeste 11 Sudeste 0 -- -- 44
2017-08-13 09:00:00 21.1 6 Sudeste 12 Sudeste 0 -- -- 48
2017-08-13 08:00:00 19.4 8 Sudeste 13 Sur 0 -- -- 51
2017-08-13 07:00:00 19.5 9 Sudeste 14 Sur 0 -- -- 50
2017-08-13 06:00:00 20.9 5 Sudeste 8 Sudeste 0 -- -- 44
2017-08-13 05:00:00 21.3 7 Sudeste 11 Sur 0 -- -- 42
2017-08-13 04:00:00 21.8 7 Sudeste 13 Sudeste 0 -- -- 40
2017-08-13 03:00:00 22.3 9 Sudeste 13 Sudeste 0 -- -- 39
2017-08-13 02:00:00 23.6 9 Sudeste 12 Sudeste 0 -- -- 35
2017-08-13 01:00:00 25.9 5 Sudeste 10 Sudeste 0 -- -- 32
2017-08-13 00:00:00 27.7 10 Sudeste 15 Sudeste 0 -- -- 31
2017-08-12 23:00:00 29.6 10 Oeste 17 Sudoeste 0 -- -- 28
2017-08-12 22:00:00 32.8 13 Nordeste 17 Nordeste 0 -- -- 17
2017-08-12 21:00:00 34.9 8 Nordeste 14 Norte 0 -- -- 15
2017-08-12 20:00:00 36.7 6 Norte 14 Noroeste 0 -- -- 13
2017-08-12 19:00:00 37.2 11 Noroeste 16 Oeste 0 -- -- 11
2017-08-12 18:00:00 37 13 Sudoeste 23 Sudoeste 0 -- -- 12
2017-08-12 17:00:00 36.8 9 Noroeste 19 Oeste 0 -- -- 10
2017-08-12 16:00:00 36 13 Oeste 22 Oeste 0 -- -- 13
2017-08-12 15:00:00 35.3 10 Noroeste 19 Norte 0 -- -- 14
2017-08-12 14:00:00 33.3 9 Oeste 14 Oeste 0 -- -- 17
2017-08-12 13:00:00 30.7 8 Oeste 14 Oeste 0 -- -- 20
2017-08-12 12:00:00 28.4 6 Oeste 11 Oeste 0 -- -- 24
2017-08-12 11:00:00 26.2 6 Oeste 10 Oeste 0 -- -- 26
2017-08-12 10:00:00 22.8 4 Sur 6 Sur 0 -- -- 30
2017-08-12 09:00:00 20.3 0 Calma -- -- 0 -- -- 30
2017-08-12 08:00:00 17.4 0 Calma 5 Norte 0 -- -- 36
2017-08-12 07:00:00 18.5 2 Sudoeste 6 Norte 0 -- -- 34
2017-08-12 06:00:00 19.6 0 Calma 6 Nordeste 0 -- -- 33
2017-08-12 05:00:00 19.5 0 Calma 5 Norte 0 -- -- 33
2017-08-12 04:00:00 21 0 Calma 9 Nordeste 0 -- -- 33
2017-08-12 03:00:00 22 4 Nordeste 10 Norte 0 -- -- 26
2017-08-12 02:00:00 23.3 5 Norte 10 Este 0 -- -- 23
2017-08-12 01:00:00 25.3 5 Sudeste 21 Nordeste 0 -- -- 23
2017-08-12 00:00:00 27 13 Nordeste 23 Norte 0 -- -- 18
2017-08-11 23:00:00 28.8 15 Nordeste 24 Nordeste 0 -- -- 17
2017-08-11 22:00:00 29.9 13 Nordeste 17 Nordeste 0 -- -- 18
2017-08-11 21:00:00 33.1 11 Nordeste 22 Norte 0 -- -- 15
2017-08-11 20:00:00 34.4 12 Norte 26 Norte 0 -- -- 13
2017-08-11 19:00:00 34.9 16 Norte 26 Norte 0 -- -- 13
2017-08-11 18:00:00 34.9 18 Norte 33 Norte 0 -- -- 13
2017-08-11 17:00:00 34.8 23 Norte 39 Norte 0 -- -- 13
2017-08-11 16:00:00 34.6 22 Norte 41 Norte 0 -- -- 14
2017-08-11 15:00:00 34 22 Norte 35 Norte 0 -- -- 15
2017-08-11 14:00:00 32.9 21 Norte 33 Norte 0 -- -- 17
2017-08-11 13:00:00 32 18 Norte 27 Norte 0 -- -- 18
2017-08-11 12:00:00 30 15 Norte 23 Norte 0 -- -- 19
2017-08-11 11:00:00 27.5 11 Norte 18 Nordeste 0 -- -- 20
2017-08-11 10:00:00 23.5 11 Nordeste 19 Nordeste 0 -- -- 26
2017-08-11 09:00:00 19.6 10 Nordeste 18 Nordeste 0 -- -- 34
2017-08-11 08:00:00 17.7 7 Nordeste 12 Nordeste 0 -- -- 35
2017-08-11 07:00:00 19.2 9 Nordeste 24 Nordeste 0 -- -- 32
2017-08-11 06:00:00 19.7 18 Nordeste 28 Nordeste 0 -- -- 30
2017-08-11 05:00:00 19.8 15 Nordeste 25 Nordeste 0 -- -- 27
2017-08-11 04:00:00 20.1 8 Norte 18 Norte 0 -- -- 24
2017-08-11 03:00:00 20.2 9 Nordeste 15 Nordeste 0 -- -- 23
2017-08-11 02:00:00 21.2 9 Nordeste 21 Nordeste 0 -- -- 21
2017-08-11 01:00:00 22.3 15 Nordeste 21 Norte 0 -- -- 20
2017-08-11 00:00:00 23.7 14 Nordeste 20 Norte 0 -- -- 18
2017-08-10 23:00:00 26.3 16 Nordeste 21 Nordeste 0 -- -- 16
2017-08-10 22:00:00 27.4 12 Nordeste 15 Nordeste 0 -- -- 16
2017-08-10 21:00:00 30.6 8 Nordeste 28 Norte 0 -- -- 15
2017-08-10 20:00:00 31.6 12 Nordeste 28 Este 0 -- -- 14
2017-08-10 19:00:00 31.9 16 Nordeste 31 Nordeste 0 -- -- 14
2017-08-10 18:00:00 31.8 15 Nordeste 35 Nordeste 0 -- -- 17
2017-08-10 17:00:00 31.5 18 Nordeste 33 Nordeste 0 -- -- 18
2017-08-10 16:00:00 30.9 21 Nordeste 50 Norte 0 -- -- 19
2017-08-10 15:00:00 30 19 Nordeste 48 Nordeste 0 -- -- 21
2017-08-10 14:00:00 29.4 16 Nordeste 32 Este 0 -- -- 23
2017-08-10 13:00:00 27.4 22 Nordeste 36 Nordeste 0 -- -- 25
2017-08-10 12:00:00 25.9 22 Este 42 Este 0 -- -- 28
2017-08-10 11:00:00 24 23 Nordeste 40 Nordeste 0 -- -- 32
2017-08-10 10:00:00 21.7 22 Nordeste 43 Nordeste 0 -- -- 36
2017-08-10 09:00:00 19.9 24 Nordeste 39 Nordeste 0 -- -- 39
2017-08-10 08:00:00 18.5 21 Nordeste 42 Nordeste 0 -- -- 41
2017-08-10 07:00:00 19.2 23 Nordeste 42 Nordeste 0 -- -- 39
2017-08-10 06:00:00 18.7 18 Nordeste 27 Nordeste 0 -- -- 40
2017-08-10 05:00:00 18.3 14 Norte 20 Norte 0 -- -- 43
2017-08-10 04:00:00 18.3 12 Norte 18 Norte 0 -- -- 45
2017-08-10 03:00:00 18.5 12 Norte 19 Norte 0 -- -- 45
2017-08-10 02:00:00 19.1 8 Norte 18 Norte 0 -- -- 50
2017-08-10 01:00:00 20.3 12 Norte 25 Norte 0 -- -- 48
2017-08-10 00:00:00 21.8 14 Norte 24 Norte 0 -- -- 44
2017-08-09 23:00:00 23.5 18 Norte 33 Norte 0 -- -- 41
2017-08-09 22:00:00 25.8 20 Norte 37 Norte 0 -- -- 37
2017-08-09 21:00:00 29.1 17 Norte 28 Norte 0 -- -- 25
2017-08-09 20:00:00 30 14 Norte 31 Norte 0 -- -- 24
2017-08-09 19:00:00 30.4 14 Norte 31 Noroeste 0 -- -- 23
2017-08-09 18:00:00 30.4 18 Noroeste 33 Norte 0 -- -- 24
2017-08-09 17:00:00 29.7 14 Norte 25 Norte 0 -- -- 23
2017-08-09 16:00:00 29.1 12 Norte 24 Noroeste 0 -- -- 21
2017-08-09 15:00:00 27.8 11 Norte 25 Norte 0 -- -- 28
2017-08-09 14:00:00 26.6 5 Nordeste 18 Oeste 0 -- -- 35
2017-08-09 13:00:00 24.7 7 Noroeste 17 Norte 0 -- -- 41
2017-08-09 12:00:00 22 9 Norte 18 Norte 0 -- -- 47
2017-08-09 11:00:00 19.2 9 Noroeste 15 Noroeste 0 -- -- 59
2017-08-09 10:00:00 17 4 Norte 10 Norte 0 -- -- 66
2017-08-09 09:00:00 14.8 3 Norte 12 Norte 0 -- -- 73
2017-08-09 08:00:00 13.1 6 Norte 8 Noroeste 0 -- -- 75
2017-08-09 07:00:00 13.5 7 Norte 9 Norte 0 -- -- 71
2017-08-09 06:00:00 14.3 6 Noroeste 9 Noroeste 0 -- -- 68
2017-08-09 05:00:00 14.9 4 Norte 14 Norte 0 -- -- 67
2017-08-09 04:00:00 15.9 10 Norte 17 Norte 0 -- -- 63
2017-08-09 03:00:00 16 8 Norte 10 Nordeste 0 -- -- 62
2017-08-09 02:00:00 17.7 0 Calma 14 Noroeste 0 -- -- 58
2017-08-09 01:00:00 18.8 3 Norte 15 Norte 0 -- -- 54
2017-08-09 00:00:00 20.4 13 Noroeste 26 Noroeste 0 -- -- 51
2017-08-08 23:00:00 22.2 16 Norte 31 Noroeste 0 -- -- 45
2017-08-08 22:00:00 24.4 21 Norte 38 Norte 0 -- -- 42
2017-08-08 21:00:00 28.6 24 Noroeste 38 Noroeste 0 -- -- 27
2017-08-08 20:00:00 30.3 17 Noroeste 25 Noroeste 0 -- -- 22
2017-08-08 19:00:00 30.6 15 Norte 28 Norte 0 -- -- 20
2017-08-08 18:00:00 30.8 12 Norte 25 Norte 0 -- -- 19
2017-08-08 17:00:00 30.1 12 Norte 26 Norte 0 -- -- 21
2017-08-08 16:00:00 29.6 12 Norte 26 Noroeste 0 -- -- 25
2017-08-08 15:00:00 28 12 Norte 29 Norte 0 -- -- 29
2017-08-08 14:00:00 26.7 12 Norte 25 Norte 0 -- -- 32
2017-08-08 13:00:00 24.9 12 Norte 24 Noroeste 0 -- -- 41
2017-08-08 12:00:00 22.7 5 Norte 15 Norte 0 -- -- 56
2017-08-08 11:00:00 19.6 5 Norte 15 Norte 0 -- -- 65
2017-08-08 10:00:00 17.1 9 Norte 15 Norte 0 -- -- 75
2017-08-08 09:00:00 15.4 8 Norte 16 Norte 0 -- -- 82
2017-08-08 08:00:00 14 6 Norte 20 Norte 0 -- -- 84
2017-08-08 07:00:00 14.6 14 Norte 21 Norte 0 -- -- 82
2017-08-08 06:00:00 15.6 10 Norte 15 Norte 0 -- -- 76
2017-08-08 05:00:00 16.3 12 Norte 18 Norte 0 -- -- 73
2017-08-08 04:00:00 17 3 Nordeste 12 Noroeste 0 -- -- 71
2017-08-08 03:00:00 17.8 11 Norte 17 Norte 0 -- -- 69
2017-08-08 02:00:00 18.3 6 Norte 11 Norte 0 -- -- 63
2017-08-08 01:00:00 19.5 7 Norte 21 Norte 0 -- -- 57
2017-08-08 00:00:00 21.2 10 Norte 26 Norte 0 -- -- 51
2017-08-07 23:00:00 23.5 15 Norte 35 Norte 0 -- -- 40
2017-08-07 22:00:00 26.6 24 Norte 36 Noroeste 0 -- -- 34
2017-08-07 21:00:00 29.1 19 Noroeste 32 Noroeste 0 -- -- 26
2017-08-07 20:00:00 32.3 17 Noroeste 30 Oeste 0 -- -- 19
2017-08-07 19:00:00 33.9 15 Noroeste 31 Oeste 0 -- -- 19
2017-08-07 18:00:00 34.5 18 Noroeste 32 Noroeste 0 -- -- 17
2017-08-07 17:00:00 34.4 15 Noroeste 29 Oeste 0 -- -- 14
2017-08-07 16:00:00 33.6 13 Oeste 20 Noroeste 0 -- -- 16
2017-08-07 15:00:00 31.6 8 Oeste 15 Oeste 0 -- -- 25
2017-08-07 14:00:00 29.2 10 Sudoeste 21 Oeste 0 -- -- 32
2017-08-07 13:00:00 27.9 11 Oeste 17 Oeste 0 -- -- 32
2017-08-07 12:00:00 25.7 9 Norte 22 Norte 0 -- -- 36
2017-08-07 11:00:00 23.6 12 Norte 26 Norte 0 -- -- 47
2017-08-07 10:00:00 21.1 12 Norte 19 Norte 0 -- -- 57
2017-08-07 09:00:00 18.7 10 Norte 18 Norte 0 -- -- 66
2017-08-07 08:00:00 17.1 5 Norte 9 Nordeste 0 -- -- 67
2017-08-07 07:00:00 18.4 2 Norte 8 Norte 0 -- -- 58
2017-08-07 06:00:00 19.1 5 Nordeste 8 Norte 0 -- -- 59
2017-08-07 05:00:00 20 3 Norte 8 Noroeste 0 -- -- 57
2017-08-07 04:00:00 21.6 5 Norte 6 Norte 0 -- -- 50
2017-08-07 03:00:00 22.6 4 Nordeste 8 Norte 0 -- -- 46
2017-08-07 02:00:00 24.1 5 Norte 13 Norte 0 -- -- 44
2017-08-07 01:00:00 26 7 Norte 22 Noroeste 0 -- -- 41
2017-08-07 00:00:00 27.8 13 Noroeste 24 Noroeste 0 -- -- 39
2017-08-06 23:00:00 30 15 Noroeste 23 Noroeste 0 -- -- 35
2017-08-06 22:00:00 31.1 10 Norte 16 Noroeste 0 -- -- 22
2017-08-06 21:00:00 34.5 11 Noroeste 21 Oeste 0 -- -- 17
2017-08-06 20:00:00 36.3 16 Noroeste 23 Oeste 0 -- -- 13
2017-08-06 19:00:00 37.4 11 Oeste 22 Oeste 0 -- -- 16
2017-08-06 18:00:00 36.8 12 Oeste 24 Oeste 0 -- -- 16
2017-08-06 17:00:00 35.6 9 Oeste 17 Oeste 0 -- -- 20
2017-08-06 16:00:00 34.3 9 Sudoeste 19 Sudoeste 0 -- -- 26
2017-08-06 15:00:00 32 10 Sudoeste 15 Sudoeste 0 -- -- 34
2017-08-06 14:00:00 29.8 9 Oeste 15 Oeste 0 -- -- 41
2017-08-06 13:00:00 26.9 7 Oeste 13 Sudoeste 0 -- -- 48
2017-08-06 12:00:00 23.8 4 Noroeste 13 Noroeste 0 -- -- 54
2017-08-06 11:00:00 21.5 6 Sudoeste 11 Sudoeste 0 -- -- 65
2017-08-06 10:00:00 19.4 2 Norte 14 Norte 0 -- -- 73
2017-08-06 09:00:00 17.4 4 Norte 8 Norte 0 -- -- 77
2017-08-06 08:00:00 15.8 3 Norte 9 Norte 0 -- -- 79
2017-08-06 07:00:00 16.5 6 Noroeste 8 Noroeste 0 -- -- 73
2017-08-06 06:00:00 17.4 0 Calma 6 Sudeste 0 -- -- 62
2017-08-06 05:00:00 18.9 3 Sur 5 Sudeste 0 -- -- 61
2017-08-06 04:00:00 19 4 Norte 9 Nordeste 0 -- -- 61
2017-08-06 03:00:00 20.2 3 Norte 10 Noroeste 0 -- -- 52
2017-08-06 02:00:00 21.4 6 Noroeste 9 Noroeste 0 -- -- 48
2017-08-06 01:00:00 23 8 Noroeste 18 Noroeste 0 -- -- 43
2017-08-06 00:00:00 24.8 12 Noroeste 24 Noroeste 0 -- -- 41
2017-08-05 23:00:00 27.2 15 Noroeste 29 Noroeste 0 -- -- 32
2017-08-05 22:00:00 29.9 20 Noroeste 30 Noroeste 0 -- -- 26
2017-08-05 21:00:00 33.3 22 Norte 31 Norte 0 -- -- 23
2017-08-05 20:00:00 35.5 19 Noroeste 34 Noroeste 0 -- -- 21
2017-08-05 19:00:00 37 18 Oeste 31 Noroeste 0 -- -- 20
2017-08-05 18:00:00 37.1 22 Noroeste 32 Noroeste 0 -- -- 23
2017-08-05 17:00:00 37.3 18 Noroeste 30 Noroeste 0 -- -- 23
2017-08-05 16:00:00 37.2 17 Oeste 28 Noroeste 0 -- -- 21
2017-08-05 15:00:00 35.3 10 Oeste 15 Sudoeste 0 -- -- 29
2017-08-05 14:00:00 33.4 6 Oeste 18 Oeste 0 -- -- 38
2017-08-05 13:00:00 30.4 9 Oeste 16 Oeste 0 -- -- 46
2017-08-05 12:00:00 27.1 8 Oeste 14 Noroeste 0 -- -- 59
2017-08-05 11:00:00 24.2 4 Oeste 13 Oeste 0 -- -- 71
2017-08-05 10:00:00 22.3 9 Oeste 17 Noroeste 0 -- -- 78
2017-08-05 09:00:00 21 10 Norte 16 Norte 0 -- -- 83
2017-08-05 08:00:00 20 9 Norte 14 Norte 0 -- -- 84
2017-08-05 07:00:00 20 6 Norte 10 Norte 0 -- -- 83
2017-08-05 06:00:00 20.7 7 Norte 17 Noroeste 0 -- -- 79
2017-08-05 05:00:00 21.7 7 Norte 14 Norte 0 -- -- 73
2017-08-05 04:00:00 22.9 6 Norte 12 Norte 0 -- -- 68
2017-08-05 03:00:00 24.3 6 Norte 18 Norte 0 -- -- 60
2017-08-05 02:00:00 25.7 15 Norte 26 Norte 0 -- -- 57
2017-08-05 01:00:00 27.2 18 Norte 29 Norte 0 -- -- 51
2017-08-05 00:00:00 29.1 5 Nordeste 17 Norte 0 -- -- 37
2017-08-04 23:00:00 31.6 11 Norte 30 Noroeste 0 -- -- 34
2017-08-04 22:00:00 33.9 17 Noroeste 36 Noroeste 0 -- -- 33
2017-08-04 21:00:00 36.6 22 Norte 36 Noroeste 0 -- -- 28
2017-08-04 20:00:00 38.6 22 Norte 35 Norte 0 -- -- 26
2017-08-04 19:00:00 40.3 13 Noroeste 26 Norte 0 -- -- 22
2017-08-04 18:00:00 40.3 10 Norte 23 Noroeste 0 -- -- 21
2017-08-04 17:00:00 39.7 9 Norte 18 Norte 0 -- -- 23
2017-08-04 16:00:00 38.9 10 Noroeste 24 Norte 0 -- -- 25
2017-08-04 15:00:00 37.5 13 Norte 23 Noroeste 0 -- -- 25
2017-08-04 14:00:00 35.9 10 Norte 23 Norte 0 -- -- 30
2017-08-04 13:00:00 34.2 10 Norte 21 Norte 0 -- -- 34
2017-08-04 12:00:00 32 9 Norte 19 Nordeste 0 -- -- 38
2017-08-04 11:00:00 29.2 11 Nordeste 18 Norte 0 -- -- 45
2017-08-04 10:00:00 25.6 9 Nordeste 13 Nordeste 0 -- -- 53
2017-08-04 09:00:00 22.3 7 Norte 13 Norte 0 -- -- 61
2017-08-04 08:00:00 20.5 5 Nordeste 13 Norte 0 -- -- 66
2017-08-04 07:00:00 20.6 7 Norte 10 Norte 0 -- -- 64
2017-08-04 06:00:00 21.4 9 Norte 14 Norte 0 -- -- 61
2017-08-04 05:00:00 21.8 5 Norte 10 Norte 0 -- -- 59
2017-08-04 04:00:00 22.6 8 Norte 12 Norte 0 -- -- 58
2017-08-04 03:00:00 23.8 7 Norte 14 Noroeste 0 -- -- 56
2017-08-04 02:00:00 25.3 7 Norte 23 Norte 0 -- -- 53
2017-08-04 01:00:00 26.5 14 Norte 33 Norte 0 -- -- 50
2017-08-04 00:00:00 28.1 22 Norte 36 Norte 0 -- -- 47
2017-08-03 23:00:00 30.2 15 Norte 27 Norte 0 -- -- 45
2017-08-03 22:00:00 32.3 17 Norte 32 Norte 0 -- -- 40
2017-08-03 21:00:00 35.5 19 Norte 30 Norte 0 -- -- 31
2017-08-03 20:00:00 36.8 18 Noroeste 29 Noroeste 0 -- -- 29
2017-08-03 19:00:00 37 13 Norte 27 Noroeste 0 -- -- 24
2017-08-03 18:00:00 37.6 9 Norte 29 Norte 0 -- -- 23
2017-08-03 17:00:00 37.5 8 Noroeste 33 Oeste 0 -- -- 19
2017-08-03 16:00:00 35.6 13 Norte 23 Norte 0 -- -- 20
2017-08-03 15:00:00 33.9 10 Norte 23 Norte 0 -- -- 26
2017-08-03 14:00:00 31.9 10 Norte 21 Norte 0 -- -- 28
2017-08-03 13:00:00 28 7 Oeste 16 Norte 0 -- -- 42
2017-08-03 12:00:00 24.8 7 Noroeste 14 Oeste 0 -- -- 55
2017-08-03 11:00:00 21.9 8 Oeste 13 Oeste 0 -- -- 68
2017-08-03 10:00:00 20.4 5 Nordeste 10 Nordeste 0 -- -- 73
2017-08-03 09:00:00 18.2 2 Norte 5 Norte 0 -- -- 80
2017-08-03 08:00:00 16.2 2 Norte 9 Norte 0 -- -- 86
2017-08-03 07:00:00 16.6 4 Norte 11 Norte 0 -- -- 83
2017-08-03 06:00:00 17.1 9 Norte 14 Norte 0 -- -- 83
2017-08-03 05:00:00 17.2 6 Nordeste 8 Norte 0 -- -- 76
2017-08-03 04:00:00 18 6 Nordeste 9 Norte 0 -- -- 70
2017-08-03 03:00:00 19.5 6 Nordeste 11 Norte 0 -- -- 62
2017-08-03 02:00:00 21.4 9 Norte 24 Norte 0 -- -- 52
2017-08-03 01:00:00 23 13 Norte 23 Norte 0 -- -- 41
2017-08-03 00:00:00 25.1 15 Norte 26 Norte 0 -- -- 28
2017-08-02 23:00:00 27 23 Norte 39 Norte 0 -- -- 33
2017-08-02 22:00:00 29.9 12 Norte 19 Noroeste 0 -- -- 19
2017-08-02 21:00:00 33.3 13 Noroeste 20 Noroeste 0 -- -- 17
2017-08-02 20:00:00 34.7 9 Noroeste 19 Oeste 0 -- -- 17
2017-08-02 19:00:00 33.9 11 Sudoeste 18 Oeste 0 -- -- 18
2017-08-02 18:00:00 33.8 10 Sudoeste 17 Oeste 0 -- -- 17
2017-08-02 17:00:00 33.6 10 Sudoeste 15 Sudoeste 0 -- -- 18
2017-08-02 16:00:00 32.7 7 Oeste 15 Sudoeste 0 -- -- 22
2017-08-02 15:00:00 30.9 6 Oeste 13 Sudoeste 0 -- -- 25
2017-08-02 14:00:00 28.6 7 Oeste 15 Oeste 0 -- -- 30
2017-08-02 13:00:00 25.8 11 Oeste 14 Oeste 0 -- -- 38
2017-08-02 12:00:00 22.7 9 Oeste 13 Oeste 0 -- -- 47
2017-08-02 11:00:00 19.9 6 Oeste 11 Oeste 0 -- -- 58
2017-08-02 10:00:00 17.9 4 Noroeste 8 Norte 0 -- -- 65
2017-08-02 09:00:00 15.6 4 Norte 6 Norte 0 -- -- 73
2017-08-02 08:00:00 14.2 5 Norte 7 Noroeste 0 -- -- 76
2017-08-02 07:00:00 14.6 2 Norte 9 Norte 0 -- -- 72
2017-08-02 06:00:00 14.8 4 Nordeste 8 Nordeste 0 -- -- 72
2017-08-02 05:00:00 15.8 5 Norte 10 Norte 0 -- -- 67
2017-08-02 04:00:00 17.1 9 Norte 14 Norte 0 -- -- 62
2017-08-02 03:00:00 18.1 10 Norte 18 Norte 0 -- -- 57
2017-08-02 02:00:00 19 10 Norte 19 Norte 0 -- -- 54
2017-08-02 01:00:00 20.5 10 Norte 18 Norte 0 -- -- 47
2017-08-02 00:00:00 22.4 12 Norte 28 Norte 0 -- -- 40
2017-08-01 23:00:00 23.7 13 Norte 31 Noroeste 0 -- -- 38
2017-08-01 22:00:00 25.8 18 Noroeste 33 Noroeste 0 -- -- 34
2017-08-01 21:00:00 28.1 22 Noroeste 35 Noroeste 0 -- -- 28
2017-08-01 20:00:00 30.2 19 Noroeste 40 Noroeste 0 -- -- 22
2017-08-01 19:00:00 31.1 15 Noroeste 27 Norte 0 -- -- 21
2017-08-01 18:00:00 31.2 13 Norte 26 Noroeste 0 -- -- 21
2017-08-01 17:00:00 30.8 11 Noroeste 26 Oeste 0 -- -- 21
2017-08-01 16:00:00 30.2 6 Noroeste 23 Nordeste 0 -- -- 24
2017-08-01 15:00:00 28.6 9 Norte 30 Norte 0 -- -- 26
2017-08-01 14:00:00 27.1 10 Norte 28 Noroeste 0 -- -- 32
2017-08-01 13:00:00 24.6 10 Norte 18 Norte 0 -- -- 40
2017-08-01 12:00:00 22 6 Norte 22 Noroeste 0 -- -- 49
2017-08-01 11:00:00 19.4 9 Norte 14 Norte 0 -- -- 56
2017-08-01 10:00:00 17.6 3 Nordeste 14 Noroeste 0 -- -- 62
2017-08-01 09:00:00 16.3 9 Noroeste 16 Norte 0 -- -- 68
2017-08-01 08:00:00 15.9 10 Norte 17 Norte 0 -- -- 70
2017-08-01 07:00:00 15.6 8 Norte 10 Norte 0 -- -- 66
2017-08-01 06:00:00 16.9 3 Nordeste 12 Norte 0 -- -- 59
2017-08-01 05:00:00 17.7 8 Norte 16 Norte 0 -- -- 55
2017-08-01 04:00:00 17.6 7 Norte 17 Norte 0 -- -- 58
2017-08-01 03:00:00 18.2 7 Norte 10 Noroeste 0 -- -- 59
2017-08-01 02:00:00 19 5 Norte 12 Noroeste 0 -- -- 59
2017-08-01 01:00:00 20.3 5 Norte 14 Norte 0 -- -- 56
2017-08-01 00:00:00 21.4 9 Norte 14 Norte 0 -- -- 58
2017-07-31 23:00:00 21.8 9 Noroeste 15 Noroeste 0 -- -- 57
2017-07-31 22:00:00 21.9 8 Norte 23 Norte 0 -- -- 53
2017-07-31 21:00:00 21.9 19 Norte 36 Norte 0 -- -- 51
2017-07-31 20:00:00 24.4 17 Norte 40 Noroeste 0 -- -- 39
2017-07-31 19:00:00 26.2 30 Noroeste 46 Noroeste 0 -- -- 34
2017-07-31 18:00:00 31.3 18 Noroeste 31 Noroeste 0 -- -- 25
2017-07-31 17:00:00 32 7 Noroeste 21 Oeste 0 -- -- 22
2017-07-31 16:00:00 30.4 9 Oeste 16 Oeste 0 -- -- 23
2017-07-31 15:00:00 28.8 6 Oeste 17 Oeste 0 -- -- 28
2017-07-31 14:00:00 27.1 7 Oeste 13 Oeste 0 -- -- 33
2017-07-31 13:00:00 24.6 5 Sudoeste 15 Oeste 0 -- -- 42
2017-07-31 12:00:00 22.3 5 Oeste 13 Oeste 0 -- -- 48
2017-07-31 11:00:00 20 4 Noroeste 11 Oeste 0 -- -- 57
2017-07-31 10:00:00 18.3 5 Oeste 10 Noroeste 0 -- -- 62
2017-07-31 09:00:00 16.7 2 Noroeste 6 Norte 0 -- -- 68
2017-07-31 08:00:00 14.6 6 Norte 9 Norte 0 -- -- 74
2017-07-31 07:00:00 15 5 Norte 8 Noroeste 0 -- -- 71
2017-07-31 06:00:00 16.2 6 Noroeste 10 Noroeste 0 -- -- 68
2017-07-31 05:00:00 16.8 4 Norte 8 Norte 0 -- -- 67
2017-07-31 04:00:00 17.9 3 Norte 7 Noroeste 0 -- -- 62
2017-07-31 03:00:00 18.9 5 Norte 15 Noroeste 0 -- -- 58
2017-07-31 02:00:00 20.4 13 Noroeste 20 Norte 0 -- -- 55
2017-07-31 01:00:00 22.2 11 Norte 27 Noroeste 0 -- -- 47
2017-07-31 00:00:00 24.2 21 Norte 30 Norte 0 -- -- 41
2017-07-30 23:00:00 26 19 Norte 31 Norte 0 -- -- 37
2017-07-30 22:00:00 29.2 17 Noroeste 32 Noroeste 0 -- -- 33
2017-07-30 21:00:00 31.8 21 Noroeste 31 Noroeste 0 -- -- 29
2017-07-30 20:00:00 34 18 Noroeste 31 Noroeste 0 -- -- 25
2017-07-30 19:00:00 35.2 17 Noroeste 33 Noroeste 0 -- -- 23
2017-07-30 18:00:00 35.8 18 Noroeste 30 Noroeste 0 -- -- 21
2017-07-30 17:00:00 36.2 14 Noroeste 25 Oeste 0 -- -- 18
2017-07-30 16:00:00 35.7 10 Noroeste 22 Norte 0 -- -- 22
2017-07-30 15:00:00 33.3 10 Oeste 16 Oeste 0 -- -- 26
2017-07-30 14:00:00 30.9 8 Oeste 14 Oeste 0 -- -- 36
2017-07-30 13:00:00 27.9 7 Oeste 13 Sudoeste 0 -- -- 45
2017-07-30 12:00:00 24.9 8 Oeste 12 Noroeste 0 -- -- 56
2017-07-30 11:00:00 22.5 5 Oeste 10 Noroeste 0 -- -- 66
2017-07-30 10:00:00 20.7 4 Oeste 8 Oeste 0 -- -- 74
2017-07-30 09:00:00 19.3 2 Norte 13 Norte 0 -- -- 80
2017-07-30 08:00:00 18.1 8 Norte 13 Norte 0 -- -- 81
2017-07-30 07:00:00 18.6 8 Norte 15 Norte 0 -- -- 80
2017-07-30 06:00:00 19.5 11 Norte 19 Norte 0 -- -- 76
2017-07-30 05:00:00 20.2 3 Norte 13 Norte 0 -- -- 74
2017-07-30 04:00:00 21.2 8 Norte 16 Norte 0 -- -- 68
2017-07-30 03:00:00 22.2 10 Norte 23 Norte 0 -- -- 66
2017-07-30 02:00:00 23.1 10 Norte 24 Norte 0 -- -- 64
2017-07-30 01:00:00 24.1 15 Norte 31 Norte 0 -- -- 61
2017-07-30 00:00:00 26.4 14 Norte 29 Norte 0 -- -- 51
2017-07-29 23:00:00 28.7 23 Norte 37 Norte 0 -- -- 50
2017-07-29 22:00:00 32.3 23 Noroeste 39 Noroeste 0 -- -- 42
2017-07-29 21:00:00 35.7 17 Noroeste 26 Noroeste 0 -- -- 23
2017-07-29 20:00:00 37.7 12 Noroeste 23 Noroeste 0 -- -- 19
2017-07-29 19:00:00 38.3 12 Oeste 23 Oeste 0 -- -- 17
2017-07-29 18:00:00 38 9 Noroeste 26 Oeste 0 -- -- 16
2017-07-29 17:00:00 37.4 13 Noroeste 23 Sudoeste 0 -- -- 20
2017-07-29 16:00:00 35.9 13 Sudoeste 19 Oeste 0 -- -- 28
2017-07-29 15:00:00 34.3 13 Sudoeste 18 Sudoeste 0 -- -- 33
2017-07-29 14:00:00 32.7 9 Oeste 17 Oeste 0 -- -- 37
2017-07-29 13:00:00 30 13 Oeste 17 Oeste 0 -- -- 44
2017-07-29 12:00:00 27.1 8 Noroeste 27 Oeste 0 -- -- 54
2017-07-29 11:00:00 24.8 15 Este 27 Este 0 -- -- 61
2017-07-29 10:00:00 22.6 5 Oeste 12 Oeste 0 -- -- 69
2017-07-29 09:00:00 21.5 5 Noroeste 11 Sudoeste 0 -- -- 72
2017-07-29 08:00:00 19.4 4 Nordeste 5 Nordeste 0 -- -- 78
2017-07-29 07:00:00 19.5 0 Calma 5 Sudeste 0 -- -- 75
2017-07-29 06:00:00 19.8 0 Calma 9 Norte 0 -- -- 73
2017-07-29 05:00:00 20.4 4 Norte 9 Norte 0 -- -- 72
2017-07-29 04:00:00 21 5 Norte 8 Norte 0 -- -- 69
2017-07-29 03:00:00 21.8 6 Norte 12 Norte 0 -- -- 64
2017-07-29 02:00:00 23.1 9 Norte 16 Norte 0 -- -- 60
2017-07-29 01:00:00 25.1 12 Norte 23 Norte 0 -- -- 53
2017-07-29 00:00:00 27.2 19 Norte 31 Norte 0 -- -- 46
2017-07-28 23:00:00 29.5 18 Norte 35 Norte 0 -- -- 40
2017-07-28 22:00:00 32.3 15 Norte 27 Norte 0 -- -- 31
2017-07-28 21:00:00 35.7 16 Noroeste 30 Noroeste 0 -- -- 21
2017-07-28 20:00:00 37.3 19 Noroeste 27 Noroeste 0 -- -- 18
2017-07-28 19:00:00 38.7 13 Noroeste 26 Oeste 0 -- -- 15
2017-07-28 18:00:00 38.5 10 Oeste 23 Oeste 0 -- -- 14
2017-07-28 17:00:00 37.8 12 Oeste 19 Oeste 0 -- -- 20
2017-07-28 16:00:00 36.7 9 Oeste 17 Sudoeste 0 -- -- 23
2017-07-28 15:00:00 35.3 9 Nordeste 17 Nordeste 0 -- -- 24
2017-07-28 14:00:00 33.3 9 Norte 21 Norte 0 -- -- 28
2017-07-28 13:00:00 30.7 11 Norte 20 Norte 0 -- -- 34
2017-07-28 12:00:00 27.1 6 Norte 17 Norte 0 -- -- 47
2017-07-28 11:00:00 22.8 4 Oeste 10 Norte 0 -- -- 71
2017-07-28 10:00:00 20.3 3 Noroeste 9 Norte 0 -- -- 81
2017-07-28 09:00:00 18.6 4 Noroeste 6 Noroeste 0 -- -- 84
2017-07-28 08:00:00 17 3 Norte 9 Norte 0 -- -- 88
2017-07-28 07:00:00 17.3 3 Nordeste 10 Norte 0 -- -- 86
2017-07-28 06:00:00 17.7 7 Norte 11 Norte 0 -- -- 84
2017-07-28 05:00:00 18.3 5 Norte 13 Norte 0 -- -- 80
2017-07-28 04:00:00 19.6 7 Norte 15 Norte 0 -- -- 75
2017-07-28 03:00:00 20.6 6 Norte 12 Noroeste 0 -- -- 67
2017-07-28 02:00:00 22.6 7 Noroeste 12 Oeste 0 -- -- 56
2017-07-28 01:00:00 24.3 2 Noroeste 19 Noroeste 0 -- -- 46
2017-07-28 00:00:00 26 13 Noroeste 31 Noroeste 0 -- -- 44
2017-07-27 23:00:00 28.9 16 Noroeste 27 Noroeste 0 -- -- 35
2017-07-27 22:00:00 31.4 17 Noroeste 29 Noroeste 0 -- -- 31
2017-07-27 21:00:00 34.8 17 Noroeste 29 Noroeste 0 -- -- 24
2017-07-27 20:00:00 36.7 19 Noroeste 30 Norte 0 -- -- 17
2017-07-27 19:00:00 37.6 14 Noroeste 24 Oeste 0 -- -- 13
2017-07-27 18:00:00 37.7 13 Oeste 26 Noroeste 0 -- -- 14
2017-07-27 17:00:00 36.8 10 Oeste 20 Oeste 0 -- -- 16
2017-07-27 16:00:00 36 11 Noroeste 22 Oeste 0 -- -- 17
2017-07-27 15:00:00 34.5 11 Oeste 17 Oeste 0 -- -- 19
2017-07-27 14:00:00 31.1 8 Sudoeste 13 Sudoeste 0 -- -- 30
2017-07-27 13:00:00 27.4 6 Sudoeste 17 Oeste 0 -- -- 35
2017-07-27 12:00:00 25.4 11 Sudoeste 15 Oeste 0 -- -- 42
2017-07-27 11:00:00 24 5 Oeste 9 Oeste 0 -- -- 39
2017-07-27 10:00:00 22.1 3 Oeste 6 Noroeste 0 -- -- 45
2017-07-27 09:00:00 20.5 0 Calma 5 Norte 0 -- -- 45
2017-07-27 08:00:00 19.4 5 Norte 7 Norte 0 -- -- 48
2017-07-27 07:00:00 20.5 0 Calma 5 Norte 0 -- -- 45
2017-07-27 06:00:00 21.3 5 Norte 7 Norte 0 -- -- 43
2017-07-27 05:00:00 22.4 6 Noroeste 8 Norte 0 -- -- 41
2017-07-27 04:00:00 23.2 5 Norte 10 Norte 0 -- -- 39
2017-07-27 03:00:00 24.8 0 Calma 4 Nordeste 0 -- -- 38
2017-07-27 02:00:00 26.2 2 Norte 7 Noroeste 0 -- -- 37
2017-07-27 01:00:00 27.4 0 Calma 9 Noroeste 0 -- -- 35
2017-07-27 00:00:00 28.7 6 Norte 26 Norte 0 -- -- 34
2017-07-26 23:00:00 30.6 14 Norte 29 Norte 0 -- -- 32
2017-07-26 22:00:00 33 22 Norte 33 Norte 0 -- -- 29
2017-07-26 21:00:00 37.3 2 Nordeste 10 Nordeste 0 -- -- 17
2017-07-26 20:00:00 37.7 5 Este 17 Noroeste 0 -- -- 16
2017-07-26 19:00:00 37.6 6 Nordeste 26 Nordeste 0 -- -- 17
2017-07-26 18:00:00 37.3 12 Nordeste 21 Nordeste 0 -- -- 16
2017-07-26 17:00:00 37.4 8 Norte 28 Noroeste 0 -- -- 17
2017-07-26 16:00:00 36.7 15 Noroeste 28 Norte 0 -- -- 18
2017-07-26 15:00:00 35.5 12 Noroeste 22 Norte 0 -- -- 19
2017-07-26 14:00:00 34.5 9 Norte 19 Noroeste 0 -- -- 21
2017-07-26 13:00:00 32.7 8 Norte 19 Norte 0 -- -- 24
2017-07-26 12:00:00 29.5 8 Nordeste 17 Nordeste 0 -- -- 29
2017-07-26 11:00:00 26 11 Nordeste 19 Norte 0 -- -- 36
2017-07-26 10:00:00 22.9 0 Calma 3 Noroeste 0 -- -- 51
2017-07-26 09:00:00 20.4 0 Calma 8 Norte 0 -- -- 57
2017-07-26 08:00:00 19.6 4 Nordeste 8 Nordeste 0 -- -- 59
2017-07-26 07:00:00 20.5 0 Calma -- -- 0 -- -- 53
2017-07-26 06:00:00 21.3 0 Calma -- -- 0 -- -- 51
2017-07-26 05:00:00 22.5 0 Calma 3 Este 0 -- -- 50
2017-07-26 04:00:00 22.8 0 Calma 12 Nordeste 0 -- -- 45
2017-07-26 03:00:00 23.9 3 Norte 11 Nordeste 0 -- -- 44
2017-07-26 02:00:00 24.7 0 Calma 11 Norte 0 -- -- 42
2017-07-26 01:00:00 26.1 8 Norte 24 Norte 0 -- -- 39
2017-07-26 00:00:00 28 15 Norte 34 Norte 0 -- -- 36
2017-07-25 23:00:00 29.9 21 Norte 32 Norte 0 -- -- 34
2017-07-25 22:00:00 31.9 10 Norte 27 Norte 0 -- -- 27
2017-07-25 21:00:00 34 17 Norte 37 Norte 0 -- -- 24
2017-07-25 20:00:00 37 15 Norte 32 Noroeste 0 -- -- 20
2017-07-25 19:00:00 37.3 13 Norte 28 Nordeste 0 -- -- 18
2017-07-25 18:00:00 37 9 Norte 30 Norte 0 -- -- 19
2017-07-25 17:00:00 36.8 18 Norte 30 Norte 0 -- -- 18
2017-07-25 16:00:00 36.3 13 Norte 27 Norte 0 -- -- 20
2017-07-25 15:00:00 35.5 12 Nordeste 26 Nordeste 0 -- -- 22
2017-07-25 14:00:00 33.5 9 Norte 22 Nordeste 0 -- -- 26
2017-07-25 13:00:00 31.1 9 Nordeste 18 Nordeste 0 -- -- 30
2017-07-25 12:00:00 26.9 7 Nordeste 15 Nordeste 0 -- -- 46
2017-07-25 11:00:00 21.9 5 Noroeste 11 Nordeste 0 -- -- 63
2017-07-25 10:00:00 19 3 Norte 5 Norte 0 -- -- 75
2017-07-25 09:00:00 17.8 0 Calma 4 Norte 0 -- -- 76
2017-07-25 08:00:00 17 3 Norte 4 Norte 0 -- -- 78
2017-07-25 07:00:00 17.5 2 Norte 9 Norte 0 -- -- 74
2017-07-25 06:00:00 18 4 Norte 8 Norte 0 -- -- 73
2017-07-25 05:00:00 19 6 Norte 13 Norte 0 -- -- 70
2017-07-25 04:00:00 19.7 9 Norte 15 Norte 0 -- -- 68
2017-07-25 03:00:00 20.7 8 Norte 12 Norte 0 -- -- 64
2017-07-25 02:00:00 22.4 9 Norte 18 Norte 0 -- -- 59
2017-07-25 01:00:00 23.8 4 Norte 8 Norte 0 -- -- 55
2017-07-25 00:00:00 25.8 3 Noroeste 18 Norte 0 -- -- 50
2017-07-24 23:00:00 27.1 14 Norte 22 Norte 0 -- -- 47
2017-07-24 22:00:00 29.2 14 Norte 32 Norte 0 -- -- 41
2017-07-24 21:00:00 32.3 18 Norte 30 Noroeste 0 -- -- 33
2017-07-24 20:00:00 34.4 16 Noroeste 29 Noroeste 0 -- -- 28
2017-07-24 19:00:00 -- -- -- -- -- -- -- -- --
2017-07-24 18:00:00 -- -- -- -- -- -- -- -- --
2017-07-24 17:00:00 -- -- -- -- -- -- -- -- --
2017-07-24 16:00:00 -- -- -- -- -- -- -- -- --
2017-07-24 15:00:00 -- -- -- -- -- -- -- -- --
2017-07-24 14:00:00 -- -- -- -- -- -- -- -- --
2017-07-24 13:00:00 -- -- -- -- -- -- -- -- --
2017-07-24 12:00:00 -- -- -- -- -- -- -- -- --
2017-07-24 11:00:00 -- -- -- -- -- -- -- -- --
2017-07-24 10:00:00 -- -- -- -- -- -- -- -- --
2017-07-24 09:00:00 -- -- -- -- -- -- -- -- --
2017-07-24 08:00:00 -- -- -- -- -- -- -- -- --
2017-07-24 07:00:00 -- -- -- -- -- -- -- -- --
2017-07-24 06:00:00 -- -- -- -- -- -- -- -- --
2017-07-24 05:00:00 -- -- -- -- -- -- -- -- --
2017-07-24 04:00:00 -- -- -- -- -- -- -- -- --
2017-07-24 03:00:00 -- -- -- -- -- -- -- -- --
2017-07-24 02:00:00 -- -- -- -- -- -- -- -- --
2017-07-24 01:00:00 -- -- -- -- -- -- -- -- --
2017-07-24 00:00:00 -- -- -- -- -- -- -- -- --
2017-07-23 23:00:00 -- -- -- -- -- -- -- -- --
2017-07-23 22:00:00 29.8 19 Norte 36 Noroeste 0 -- -- 32
2017-07-23 21:00:00 33.8 13 Noroeste 22 Norte 0 -- -- 24
2017-07-23 20:00:00 34.5 14 Norte 27 Norte 0 -- -- 22
2017-07-23 19:00:00 35.3 14 Norte 24 Norte 0 -- -- 19
2017-07-23 18:00:00 34.9 15 Norte 28 Norte 0 -- -- 21
2017-07-23 17:00:00 34.4 12 Oeste 19 Norte 0 -- -- 24
2017-07-23 16:00:00 33.3 12 Oeste 26 Oeste 0 -- -- 25
2017-07-23 15:00:00 31.1 12 Oeste 19 Sudoeste 0 -- -- 28
2017-07-23 14:00:00 28.9 11 Sudoeste 16 Oeste 0 -- -- 40
2017-07-23 13:00:00 26.4 8 Oeste 13 Oeste 0 -- -- 46
2017-07-23 12:00:00 23.6 7 Oeste 12 Oeste 0 -- -- 54
2017-07-23 11:00:00 21 6 Oeste 13 Oeste 0 -- -- 62
2017-07-23 10:00:00 19.4 4 Nordeste 10 Nordeste 0 -- -- 65
2017-07-23 09:00:00 16.4 6 Norte 9 Noroeste 0 -- -- 76
2017-07-23 08:00:00 15 3 Nordeste 7 Nordeste 0 -- -- 81
2017-07-23 07:00:00 14.9 5 Norte 9 Norte 0 -- -- 78
2017-07-23 06:00:00 15.7 5 Norte 8 Norte 0 -- -- 76
2017-07-23 05:00:00 16.5 5 Norte 10 Norte 0 -- -- 74
2017-07-23 04:00:00 17.5 9 Norte 14 Norte 0 -- -- 71
2017-07-23 03:00:00 18.7 8 Norte 14 Norte 0 -- -- 68
2017-07-23 02:00:00 20 9 Norte 15 Norte 0 -- -- 64
2017-07-23 01:00:00 21.8 9 Noroeste 29 Noroeste 0 -- -- 57
2017-07-23 00:00:00 23.4 12 Noroeste 30 Noroeste 0 -- -- 53
2017-07-22 23:00:00 25.3 20 Noroeste 34 Norte 0 -- -- 48
2017-07-22 22:00:00 27.6 21 Norte 35 Noroeste 0 -- -- 41
2017-07-22 21:00:00 30.9 18 Noroeste 27 Noroeste 0 -- -- 30
2017-07-22 20:00:00 32.5 14 Noroeste 28 Noroeste 0 -- -- 21
2017-07-22 19:00:00 32.7 13 Noroeste 22 Oeste 0 -- -- 21
2017-07-22 18:00:00 32.4 12 Sudoeste 20 Sur 0 -- -- 25
2017-07-22 17:00:00 31.5 11 Sur 22 Noroeste 0 -- -- 25
2017-07-22 16:00:00 30.5 12 Oeste 19 Oeste 0 -- -- 28
2017-07-22 15:00:00 28.7 10 Sudoeste 16 Oeste 0 -- -- 35
2017-07-22 14:00:00 26.6 8 Oeste 14 Oeste 0 -- -- 41
2017-07-22 13:00:00 24.1 6 Noroeste 14 Sudoeste 0 -- -- 50
2017-07-22 12:00:00 21.5 7 Oeste 14 Sudoeste 0 -- -- 61
2017-07-22 11:00:00 19.2 4 Oeste 14 Oeste 0 -- -- 67
2017-07-22 10:00:00 17.5 7 Oeste 12 Noroeste 0 -- -- 74
2017-07-22 09:00:00 15.7 9 Norte 13 Norte 0 -- -- 80
2017-07-22 08:00:00 14.1 0 Calma 5 Este 0 -- -- 83
2017-07-22 07:00:00 13.9 0 Calma 9 Norte 0 -- -- 82
2017-07-22 06:00:00 14.5 6 Norte 10 Noroeste 0 -- -- 81
2017-07-22 05:00:00 15.3 7 Norte 11 Norte 0 -- -- 76
2017-07-22 04:00:00 16.3 8 Noroeste 12 Noroeste 0 -- -- 70
2017-07-22 03:00:00 17.2 6 Noroeste 12 Noroeste 0 -- -- 64
2017-07-22 02:00:00 18.3 5 Noroeste 15 Noroeste 0 -- -- 59
2017-07-22 01:00:00 19.5 12 Noroeste 23 Noroeste 0 -- -- 55
2017-07-22 00:00:00 21 12 Noroeste 28 Noroeste 0 -- -- 50
2017-07-21 23:00:00 22.8 18 Noroeste 30 Noroeste 0 -- -- 44
2017-07-21 22:00:00 24.8 19 Noroeste 32 Norte 0 -- -- 39
2017-07-21 21:00:00 27.6 20 Noroeste 28 Noroeste 0 -- -- 32
2017-07-21 20:00:00 29.5 18 Noroeste 28 Noroeste 0 -- -- 25
2017-07-21 19:00:00 30 15 Noroeste 26 Noroeste 0 -- -- 25
2017-07-21 18:00:00 30.1 17 Oeste 42 Noroeste 0 -- -- 28
2017-07-21 17:00:00 29.9 16 Noroeste 30 Oeste 0 -- -- 31
2017-07-21 16:00:00 28.7 12 Oeste 22 Oeste 0 -- -- 36
2017-07-21 15:00:00 26.7 10 Sudoeste 19 Oeste 0 -- -- 42
2017-07-21 14:00:00 24.2 4 Noroeste 15 Sudoeste 0 -- -- 50
2017-07-21 13:00:00 21.9 6 Oeste 14 Sudoeste 0 -- -- 56
2017-07-21 12:00:00 19.6 7 Oeste 17 Sudoeste 0 -- -- 64
2017-07-21 11:00:00 17.7 5 Oeste 13 Oeste 0 -- -- 70
2017-07-21 10:00:00 16.3 5 Sudoeste 12 Noroeste 0 -- -- 75
2017-07-21 09:00:00 15 8 Oeste 14 Noroeste 0 -- -- 79
2017-07-21 08:00:00 13.8 9 Noroeste 19 Norte 0 -- -- 82
2017-07-21 07:00:00 13.7 12 Noroeste 19 Noroeste 0 -- -- 80
2017-07-21 06:00:00 14 10 Noroeste 18 Norte 0 -- -- 77
2017-07-21 05:00:00 14.3 9 Noroeste 16 Noroeste 0 -- -- 74
2017-07-21 04:00:00 14.8 11 Noroeste 19 Noroeste 0 -- -- 70
2017-07-21 03:00:00 15.6 10 Noroeste 18 Noroeste 0 -- -- 66
2017-07-21 02:00:00 16.6 12 Noroeste 21 Noroeste 0 -- -- 63
2017-07-21 01:00:00 17.7 13 Noroeste 29 Noroeste 0 -- -- 60
2017-07-21 00:00:00 18.8 14 Noroeste 31 Noroeste 0 -- -- 55
2017-07-20 23:00:00 20 22 Noroeste 40 Noroeste 0 -- -- 52
2017-07-20 22:00:00 22.4 22 Noroeste 40 Noroeste 0 -- -- 48
2017-07-20 21:00:00 25 25 Noroeste 41 Noroeste 0 -- -- 42
2017-07-20 20:00:00 27 19 Noroeste 33 Oeste 0 -- -- 33
2017-07-20 19:00:00 29.3 19 Noroeste 31 Noroeste 0 -- -- 28
2017-07-20 18:00:00 29.3 17 Noroeste 28 Noroeste 0 -- -- 28
2017-07-20 17:00:00 29.4 19 Noroeste 31 Oeste 0 -- -- 31
2017-07-20 16:00:00 28.9 12 Noroeste 22 Noroeste 0 -- -- 36
2017-07-20 15:00:00 27.1 9 Norte 23 Noroeste 0 -- -- 39
2017-07-20 14:00:00 26.1 8 Noroeste 23 Oeste 0 -- -- 45
2017-07-20 13:00:00 24.1 9 Noroeste 21 Noroeste 0 -- -- 50
2017-07-20 12:00:00 21.8 7 Norte 15 Noroeste 0 -- -- 58
2017-07-20 11:00:00 20 6 Norte 16 Noroeste 0 -- -- 64
2017-07-20 10:00:00 17.5 6 Norte 14 Noroeste 0 -- -- 74
2017-07-20 09:00:00 16 4 Noroeste 15 Noroeste 0 -- -- 80
2017-07-20 08:00:00 14.7 6 Noroeste 10 Noroeste 0 -- -- 83
2017-07-20 07:00:00 14.9 5 Noroeste 8 Noroeste 0 -- -- 80
2017-07-20 06:00:00 15.7 6 Noroeste 15 Oeste 0 -- -- 76
2017-07-20 05:00:00 16.7 9 Noroeste 15 Noroeste 0 -- -- 71
2017-07-20 04:00:00 17.7 8 Noroeste 16 Norte 0 -- -- 70
2017-07-20 03:00:00 18.9 6 Noroeste 22 Norte 0 -- -- 69
2017-07-20 02:00:00 20 12 Norte 18 Norte 0 -- -- 67
2017-07-20 01:00:00 21.1 10 Norte 26 Norte 0 -- -- 64
2017-07-20 00:00:00 22.9 15 Noroeste 30 Noroeste 0 -- -- 58
2017-07-19 23:00:00 24.4 15 Norte 25 Noroeste 0 -- -- 54
2017-07-19 22:00:00 26.1 18 Noroeste 28 Norte 0 -- -- 46
2017-07-19 21:00:00 28.3 17 Noroeste 27 Noroeste 0 -- -- 41
2017-07-19 20:00:00 29.2 17 Noroeste 32 Noroeste 0 -- -- 37
2017-07-19 19:00:00 29.9 18 Noroeste 31 Noroeste 0 -- -- 38
2017-07-19 18:00:00 29.9 19 Noroeste 29 Noroeste 0 -- -- 39
2017-07-19 17:00:00 30.6 17 Noroeste 27 Oeste 0 -- -- 37
2017-07-19 16:00:00 29.8 12 Noroeste 28 Oeste 0 -- -- 41
2017-07-19 15:00:00 28.8 14 Oeste 27 Noroeste 0 -- -- 45
2017-07-19 14:00:00 27.4 15 Noroeste 26 Oeste 0 -- -- 49
2017-07-19 13:00:00 25.7 7 Oeste 17 Oeste 0 -- -- 54
2017-07-19 12:00:00 23.5 8 Oeste 17 Oeste 0 -- -- 58
2017-07-19 11:00:00 21.6 9 Oeste 19 Noroeste 0 -- -- 64
2017-07-19 10:00:00 20 8 Noroeste 20 Oeste 0 -- -- 70
2017-07-19 09:00:00 19.6 10 Oeste 17 Noroeste 0 -- -- 73
2017-07-19 08:00:00 18.8 9 Noroeste 21 Noroeste 0 -- -- 75
2017-07-19 07:00:00 19.1 12 Noroeste 19 Oeste 0 -- -- 78
2017-07-19 06:00:00 19.1 7 Norte 19 Noroeste 0 -- -- 79
2017-07-19 05:00:00 19.1 10 Noroeste 18 Noroeste 0 -- -- 81
2017-07-19 04:00:00 18.8 12 Noroeste 19 Noroeste 0 -- -- 82
2017-07-19 03:00:00 19.1 12 Noroeste 22 Noroeste 0 -- -- 80
2017-07-19 02:00:00 20.2 14 Noroeste 22 Noroeste 0 -- -- 77
2017-07-19 01:00:00 21.2 15 Noroeste 24 Noroeste 0 -- -- 72
2017-07-19 00:00:00 22.7 16 Noroeste 33 Norte 0 -- -- 67